Rioja, Peru
Current Conditions -  °F | °C
As of 3:00 PM on Friday 19 Dec 2014 (Local Time) from SPST Reporting Station
Scattered Clouds Scattered Clouds  
Wind Chill: 93°   Ceiling: Unl
Heat Index: 103°   Visibility: 6mi
Dew Point: 73°   Wind: 12mph
Humidity: 52%   Direction: 330°NNW
Pressure: 29.68"   Gusts: NA
Location:  6.05°S, 77.14°W
Report Text: SPST 192000Z 33010KT 9999 SCT025 34/23 Q1005 RMK BIRD HAZARD RWY 17/35 PP000
Loading
Personal Weather Stations






























Interactive Weather Map New forecast layout! Learn more

10-Day Weather Forecast

Advertisements
Track Severe Weather on mobile